Time;durP1;ratioP1;P1;durP2;ratioP2;P2;SDS_P1;SDS_P2;PMS_P1;PMS_P2;Temp;Humidity;BMP_temperature;BMP_pressure;BME280_temperature;BME280_humidity;BME280_pressure;Samples;Min_cycle;Max_cycle;Signal;HPM_P1;HPM_P2
2022/06/13 00:02:06;;;;;;;3.03;1.70;;;;;;;12.73;67.00;101996.63;6215021;23;20001;-77
2022/06/13 00:04:31;;;;;;;2.37;1.80;;;;;;;12.69;67.32;101987.13;6215115;23;20016;-77
2022/06/13 00:06:57;;;;;;;2.53;1.90;;;;;;;12.63;67.52;101985.44;6215288;23;20000;-77
2022/06/13 00:09:22;;;;;;;1.80;1.63;;;;;;;12.61;67.32;101986.31;6215953;23;20016;-77
2022/06/13 00:11:47;;;;;;;1.67;1.57;;;;;;;12.59;67.75;101994.13;6214013;23;20007;-77
2022/06/13 00:14:13;;;;;;;1.70;1.60;;;;;;;12.55;68.24;101984.63;6215828;23;20079;-77
2022/06/13 00:16:39;;;;;;;;;;;;;;;12.51;68.05;101990.69;6215242;23;20396;-77
2022/06/13 00:19:05;;;;;;;1.70;1.60;;;;;;;12.46;67.93;101985.53;6214977;23;19958;-77
2022/06/13 00:21:33;;;;;;;1.70;1.60;;;;;;;12.44;68.46;101989.00;6214657;23;20004;-77
2022/06/13 00:24:01;;;;;;;1.63;1.52;;;;;;;12.41;68.22;101979.44;6214155;23;20008;-77
2022/06/13 00:26:28;;;;;;;2.13;1.77;;;;;;;12.40;68.28;101972.50;6215203;23;20005;-77
2022/06/13 00:28:54;;;;;;;1.73;1.63;;;;;;;12.34;68.48;101977.75;6214508;23;20422;-77
2022/06/13 00:31:20;;;;;;;2.10;1.90;;;;;;;12.34;68.31;101981.22;6213518;23;20132;-77
2022/06/13 00:33:46;;;;;;;2.03;1.73;;;;;;;12.32;68.56;101980.38;6215146;23;20008;-77
2022/06/13 00:36:12;;;;;;;2.25;1.65;;;;;;;12.30;68.74;101979.53;6216016;23;20005;-77
2022/06/13 00:38:37;;;;;;;3.57;1.70;;;;;;;12.32;68.76;101979.50;6215780;23;20418;-77
2022/06/13 00:41:13;;;;;;;2.67;1.80;;;;;;;12.33;68.76;101973.44;6217596;23;20080;-77
2022/06/13 00:43:41;;;;;;;2.97;1.67;;;;;;;12.35;68.99;101969.09;6216987;23;20009;-77
2022/06/13 00:46:22;;;;;;;1.80;1.70;;;;;;;12.38;69.07;101970.78;6216087;23;20012;-78
2022/06/13 00:48:52;;;;;;;2.22;1.58;;;;;;;12.39;69.16;101967.31;6216599;23;20000;-77
2022/06/13 00:51:17;;;;;;;1.70;1.60;;;;;;;12.37;69.39;101956.94;6217329;23;20001;-77
2022/06/13 00:53:43;;;;;;;1.60;1.50;;;;;;;12.40;69.40;101958.66;6215999;23;20008;-77
2022/06/13 00:56:16;;;;;;;1.60;1.50;;;;;;;12.42;69.56;101964.72;6217155;23;20008;-77
2022/06/13 00:58:49;;;;;;;1.30;1.30;;;;;;;12.42;70.30;101955.16;6216222;23;20236;-77
2022/06/13 01:01:14;;;;;;;1.55;1.30;;;;;;;12.43;69.84;101959.50;6215331;23;20001;-77
2022/06/13 01:03:43;;;;;;;1.33;1.23;;;;;;;12.44;70.04;101961.22;6216106;23;20089;-77
2022/06/13 01:06:09;;;;;;;1.70;1.60;;;;;;;12.47;70.00;101957.72;6216594;23;20074;-77
2022/06/13 01:08:37;;;;;;;1.60;1.50;;;;;;;12.50;70.04;101955.97;6217157;23;20016;-77
2022/06/13 01:11:19;;;;;;;2.40;1.52;;;;;;;12.52;70.49;101959.44;6217023;23;20036;-78
2022/06/13 01:14:22;;;;;;;1.50;1.40;;;;;;;12.54;70.47;101955.97;6216125;23;20011;-77
2022/06/13 01:17:17;;;;;;;1.52;1.23;;;;;;;12.56;70.06;101954.22;6216746;23;20369;-77
2022/06/13 01:20:04;;;;;;;1.35;1.25;;;;;;;12.54;70.78;101958.56;6216521;23;20008;-77
2022/06/13 01:22:48;;;;;;;1.90;1.60;;;;;;;12.54;70.23;101951.63;6216172;23;20043;-77
2022/06/13 01:25:44;;;;;;;1.70;1.48;;;;;;;12.57;69.88;101953.34;6216763;23;20015;-77
2022/06/13 01:28:12;;;;;;;;;;;;;;;12.56;70.33;101956.81;6215511;23;20426;-77
2022/06/13 01:31:01;;;;;;;1.08;1.08;;;;;;;12.53;70.81;101960.31;6217241;23;19915;-77
2022/06/13 01:33:42;;;;;;;2.42;1.40;;;;;;;12.50;70.37;101955.97;6216998;23;20032;-77
2022/06/13 01:36:25;;;;;;;1.58;1.48;;;;;;;12.52;70.79;101954.22;6215496;23;20004;-77
2022/06/13 01:39:20;;;;;;;1.77;1.60;;;;;;;12.55;70.30;101949.88;6216035;23;20009;-78
2022/06/13 01:42:04;;;;;;;1.73;1.63;;;;;;;12.55;70.78;101937.75;6133789;23;20045;-77
2022/06/13 01:44:54;;;;;;;1.60;1.50;;;;;;;12.57;70.97;101932.50;6216167;23;20015;-77
2022/06/13 01:47:31;;;;;;;1.70;1.60;;;;;;;12.56;71.55;101934.22;6215895;23;20005;-77
2022/06/13 01:50:00;;;;;;;1.60;1.50;;;;;;;12.56;72.10;101925.56;6215387;23;20016;-77
2022/06/13 01:52:40;;;;;;;1.30;1.20;;;;;;;12.56;71.45;101939.44;6216167;23;20414;-77
2022/06/13 01:55:20;;;;;;;2.00;1.50;;;;;;;12.61;71.31;101936.84;6216402;23;20000;-77
2022/06/13 01:57:57;;;;;;;1.33;1.23;;;;;;;12.63;71.56;101945.47;6215685;23;20035;-77
2022/06/13 02:00:31;;;;;;;1.50;1.40;;;;;;;12.64;71.61;101940.28;6210403;23;20013;-78
2022/06/13 02:03:16;;;;;;;1.40;1.30;;;;;;;12.69;71.36;101953.28;6214999;23;20489;-77
2022/06/13 02:05:49;;;;;;;1.27;1.17;;;;;;;12.72;71.67;101944.56;6216019;23;20039;-78
2022/06/13 02:08:25;;;;;;;1.52;1.23;;;;;;;12.75;71.36;101947.16;6217913;23;20371;-77
2022/06/13 02:11:00;;;;;;;;;;;;;;;12.78;71.40;101952.31;6217613;23;20079;-77
2022/06/13 02:13:35;;;;;;;1.60;1.50;;;;;;;12.81;71.27;101949.72;6218071;23;19908;-77
2022/06/13 02:16:08;;;;;;;1.48;1.38;;;;;;;12.83;71.73;101951.41;6217363;23;20005;-77
2022/06/13 02:18:48;;;;;;;2.05;1.60;;;;;;;12.87;71.55;101946.19;6215663;23;20051;-77
2022/06/13 02:21:20;;;;;;;1.45;1.35;;;;;;;12.90;71.25;101949.63;6216281;23;20004;-77
2022/06/13 02:23:51;;;;;;;1.58;1.45;;;;;;;12.94;71.74;101948.75;6214645;23;20090;-77
2022/06/13 02:26:24;;;;;;;1.70;1.60;;;;;;;12.96;71.91;101951.34;6216674;23;20087;-77
2022/06/13 02:29:02;;;;;;;1.50;1.40;;;;;;;12.97;71.71;101940.91;6216158;23;20376;-77
2022/06/13 02:31:46;;;;;;;1.45;1.35;;;;;;;13.01;71.93;101933.94;6215180;23;20008;-77
2022/06/13 02:34:24;;;;;;;1.65;1.55;;;;;;;13.05;71.70;101929.56;6217042;23;20015;-78
2022/06/13 02:37:09;;;;;;;1.67;1.50;;;;;;;13.05;72.57;101930.44;6215974;23;20008;-77
2022/06/13 02:39:43;;;;;;;1.63;1.52;;;;;;;13.06;73.01;101934.75;6208715;23;20430;-77
2022/06/13 02:42:56;;;;;;;1.95;1.55;;;;;;;13.07;73.67;101930.41;6216174;23;20084;-77
2022/06/13 02:45:48;;;;;;;1.67;1.58;;;;;;;13.07;74.39;101927.81;6186900;23;20012;-77
2022/06/13 02:48:26;;;;;;;1.63;1.40;;;;;;;13.06;72.76;101928.69;6216074;23;20019;-77
2022/06/13 02:51:01;;;;;;;1.52;1.20;;;;;;;13.06;73.01;101941.72;6215190;23;20071;-77
2022/06/13 02:54:02;;;;;;;1.48;1.38;;;;;;;13.05;72.95;101932.16;6215276;23;20044;-78
2022/06/13 02:56:35;;;;;;;1.48;1.38;;;;;;;13.03;73.21;101933.91;6210401;23;20039;-77
2022/06/13 02:59:30;;;;;;;2.03;1.63;;;;;;;13.03;73.36;101931.31;6214313;23;20004;-77
2022/06/13 03:02:01;;;;;;;1.40;1.27;;;;;;;13.02;72.82;101926.97;6215627;23;20011;-78
2022/06/13 03:04:40;;;;;;;1.20;1.20;;;;;;;13.01;72.71;101927.84;6215991;23;20008;-78
2022/06/13 03:07:13;;;;;;;1.38;1.27;;;;;;;12.99;72.56;101933.06;6213951;23;20083;-78
2022/06/13 03:09:39;;;;;;;1.58;1.27;;;;;;;12.97;72.82;101933.09;6215615;23;20069;-78
2022/06/13 03:12:11;;;;;;;1.60;1.50;;;;;;;12.96;72.72;101931.38;6216032;23;20099;-78
2022/06/13 03:15:03;;;;;;;1.70;1.60;;;;;;;12.98;73.13;101928.75;6214977;23;20039;-78
2022/06/13 03:17:39;;;;;;;1.40;1.30;;;;;;;12.97;73.27;101932.22;6179974;23;20016;-78
2022/06/13 03:20:18;;;;;;;1.50;1.40;;;;;;;12.97;73.96;101933.09;6214910;23;20004;-78
2022/06/13 03:23:11;;;;;;;2.15;1.30;;;;;;;12.95;73.39;101932.25;6214989;23;20449;-78
2022/06/13 03:25:59;;;;;;;1.50;1.40;;;;;;;12.97;73.37;101937.44;6180632;23;20009;-78
2022/06/13 03:28:37;;;;;;;1.60;1.50;;;;;;;12.97;73.03;101933.09;6214819;23;20410;-78
2022/06/13 03:31:23;;;;;;;2.05;1.48;;;;;;;12.99;73.13;101938.28;5105991;27;20410;-78
2022/06/13 03:33:53;;;;;;;1.40;1.30;;;;;;;12.98;73.16;101936.56;5110226;28;20024;-78
2022/06/13 03:36:31;;;;;;;1.60;1.45;;;;;;;12.97;74.58;101938.31;5110859;28;20123;-78
2022/06/13 03:39:01;;;;;;;1.40;1.30;;;;;;;12.96;74.06;101936.59;5110646;28;20031;-78
2022/06/13 03:41:32;;;;;;;1.30;1.20;;;;;;;12.94;73.14;101943.53;5109457;28;20050;-78
2022/06/13 03:44:08;;;;;;;1.60;1.50;;;;;;;12.91;73.24;101945.31;5110365;28;20028;-78
2022/06/13 03:46:41;;;;;;;1.58;1.48;;;;;;;12.89;72.99;101950.50;5105697;28;20036;-78
2022/06/13 03:49:22;;;;;;;2.28;1.90;;;;;;;12.88;72.74;101948.81;5089357;28;20082;-78
2022/06/13 03:51:52;;;;;;;1.95;1.75;;;;;;;12.88;72.82;101947.94;5089170;27;20040;-78
2022/06/13 03:54:26;;;;;;;2.58;1.83;;;;;;;12.84;72.89;101949.69;5090147;28;20020;-78
2022/06/13 03:57:15;;;;;;;2.38;1.88;;;;;;;12.85;73.24;101955.75;5089096;28;20070;-78
2022/06/13 03:59:46;;;;;;;1.92;1.70;;;;;;;12.83;73.04;101961.00;5089526;28;20111;-78
2022/06/13 04:02:14;;;;;;;2.30;1.77;;;;;;;12.80;73.18;101964.50;5089338;28;20021;-78
2022/06/13 04:04:48;;;;;;;2.80;1.75;;;;;;;12.78;73.42;101958.41;5089644;28;20050;-78
2022/06/13 04:07:15;;;;;;;2.95;1.75;;;;;;;12.79;75.79;101969.69;5089893;28;20133;-78
2022/06/13 04:09:45;;;;;;;3.38;2.22;;;;;;;12.77;73.67;101967.09;5088567;28;20025;-79
2022/06/13 04:12:13;;;;;;;2.40;1.92;;;;;;;12.77;72.79;101961.03;5089542;28;20477;-80
2022/06/13 04:15:15;;;;;;;2.05;1.85;;;;;;;12.76;73.30;101970.59;5089334;28;20028;-79
2022/06/13 04:18:06;;;;;;;4.45;2.00;;;;;;;12.75;73.31;101970.59;5101916;28;20165;-78
2022/06/13 04:20:53;;;;;;;3.22;1.98;;;;;;;12.73;74.42;101967.13;5109803;28;20040;-77
2022/06/13 04:23:33;;;;;;;2.70;2.13;;;;;;;12.70;74.11;101975.84;5109043;28;20089;-77
2022/06/13 04:26:07;;;;;;;1.60;1.50;;;;;;;12.69;74.53;101975.84;5109398;28;20476;-76
2022/06/13 04:28:50;;;;;;;1.80;1.70;;;;;;;12.68;74.60;101974.97;5109785;28;20038;-77
2022/06/13 04:31:18;;;;;;;2.65;1.60;;;;;;;12.68;73.77;101980.19;5108859;28;20111;-76
2022/06/13 04:34:07;;;;;;;2.83;1.90;;;;;;;12.71;74.34;101987.13;5109184;28;20051;-77
2022/06/13 04:36:34;;;;;;;2.08;1.88;;;;;;;12.72;74.14;101986.25;5103124;28;20552;-77
2022/06/13 04:39:04;;;;;;;1.80;1.70;;;;;;;12.72;73.88;101988.84;5088396;28;20028;-76
2022/06/13 04:41:33;;;;;;;1.95;1.70;;;;;;;12.75;74.66;101989.69;5081218;28;20036;-77
2022/06/13 04:44:02;;;;;;;1.75;1.52;;;;;;;12.77;75.45;101980.13;5075093;28;20029;-78
2022/06/13 04:46:29;;;;;;;1.77;1.67;;;;;;;12.79;77.26;101985.31;5074589;28;20044;-79
2022/06/13 04:48:58;;;;;;;1.80;1.70;;;;;;;12.80;75.94;101990.53;5075020;28;20035;-77
2022/06/13 04:51:32;;;;;;;2.28;1.85;;;;;;;12.85;75.88;101987.03;5074834;28;20025;-79
2022/06/13 04:54:09;;;;;;;2.08;1.75;;;;;;;12.90;76.10;101993.09;5075422;28;20260;-78
2022/06/13 04:56:34;;;;;;;1.88;1.60;;;;;;;12.94;75.70;101990.44;5082486;28;20024;-78
2022/06/13 04:59:01;;;;;;;1.50;1.40;;;;;;;13.01;76.68;101986.06;5094376;28;20086;-78
2022/06/13 05:01:35;;;;;;;1.73;1.63;;;;;;;13.10;76.44;101993.81;5095591;28;20046;-78
2022/06/13 05:04:04;;;;;;;2.75;1.70;;;;;;;13.18;77.16;101991.16;5095135;28;20034;-78
2022/06/13 05:06:50;;;;;;;2.08;1.67;;;;;;;13.24;76.44;101991.06;5095012;28;20024;-78
2022/06/13 05:09:36;;;;;;;2.00;1.60;;;;;;;13.34;75.80;101994.50;5095903;28;20036;-78
2022/06/13 05:12:07;;;;;;;1.85;1.50;;;;;;;13.43;75.16;102004.88;5091308;28;20024;-78
2022/06/13 05:14:45;;;;;;;2.28;1.90;;;;;;;13.52;75.21;101998.72;5073902;28;20043;-78
2022/06/13 05:17:31;;;;;;;1.73;1.58;;;;;;;13.61;76.54;102002.09;5074820;28;20024;-78
2022/06/13 05:20:12;;;;;;;2.10;1.70;;;;;;;13.68;76.65;102009.88;5073930;28;20047;-78
2022/06/13 05:23:02;;;;;;;2.10;1.90;;;;;;;13.74;77.48;102009.78;5074089;28;20103;-78
2022/06/13 05:25:48;;;;;;;2.65;2.10;;;;;;;13.79;76.84;102009.75;5074576;28;20444;-78
2022/06/13 05:28:20;;;;;;;2.67;1.90;;;;;;;13.85;75.99;102008.81;5074077;28;20025;-78
2022/06/13 05:30:50;;;;;;;1.90;1.75;;;;;;;13.93;75.81;102017.44;5073848;28;20139;-79
2022/06/13 05:33:19;;;;;;;1.90;1.77;;;;;;;14.00;76.33;102023.47;5074756;28;20040;-79
2022/06/13 05:35:45;;;;;;;2.25;1.50;;;;;;;14.06;76.43;102023.38;5073255;28;20104;-79
2022/06/13 05:38:17;;;;;;;1.60;1.35;;;;;;;14.15;76.67;102025.91;5074454;28;20499;-79
2022/06/13 05:40:45;;;;;;;1.35;1.25;;;;;;;14.24;75.97;102024.09;5077905;28;20032;-78
2022/06/13 05:43:12;;;;;;;2.10;1.63;;;;;;;14.32;76.96;102027.47;5094364;28;20036;-78
2022/06/13 05:45:42;;;;;;;1.83;1.70;;;;;;;14.36;75.92;102032.63;5092167;28;20077;-78
2022/06/13 05:48:15;;;;;;;1.55;1.38;;;;;;;14.43;75.46;102030.81;5093616;28;20392;-79
2022/06/13 05:50:41;;;;;;;0.80;0.80;;;;;;;14.54;75.97;102038.50;5093939;28;20024;-79
2022/06/13 05:53:11;;;;;;;5.30;2.30;;;;;;;14.61;76.50;102031.44;5093592;28;20032;-79
2022/06/13 05:55:36;;;;;;;3.50;2.10;;;;;;;14.67;76.57;102042.72;5093239;28;20327;-79
2022/06/13 05:58:02;;;;;;;9.43;3.03;;;;;;;14.70;76.36;102041.78;5094210;28;20024;-79
2022/06/13 06:00:33;;;;;;;4.30;2.73;;;;;;;14.76;76.10;102049.56;5094363;28;20023;-80
2022/06/13 06:03:01;;;;;;;4.68;2.88;;;;;;;14.79;76.88;102059.09;5093181;28;20027;-80
2022/06/13 06:05:26;;;;;;;7.85;3.13;;;;;;;14.82;77.33;102048.63;5093826;28;20035;-79
2022/06/13 06:07:52;;;;;;;10.27;4.13;;;;;;;14.83;77.17;102058.19;5093809;28;20024;-79
2022/06/13 06:10:25;;;;;;;7.30;3.47;;;;;;;14.89;76.39;102063.31;5091653;28;20028;-81
2022/06/13 06:12:51;;;;;;;6.00;2.83;;;;;;;15.01;75.87;102059.69;5093739;28;20020;-79
2022/06/13 06:15:16;;;;;;;3.80;2.30;;;;;;;15.08;75.83;102069.16;5093674;28;20116;-80
2022/06/13 06:17:41;;;;;;;2.13;2.00;;;;;;;15.10;75.42;102069.13;5092872;28;20446;-80
2022/06/13 06:20:07;;;;;;;2.33;2.13;;;;;;;15.18;75.46;102077.75;5092024;28;20043;-80
2022/06/13 06:22:33;;;;;;;2.30;1.67;;;;;;;15.25;75.58;102075.91;5093861;28;20027;-81
2022/06/13 06:24:58;;;;;;;7.27;3.17;;;;;;;15.36;74.35;102080.94;5092358;28;20048;-81
2022/06/13 06:27:23;;;;;;;5.53;2.87;;;;;;;15.47;74.40;102080.78;5093827;28;20020;-80
2022/06/13 06:29:51;;;;;;;5.00;2.60;;;;;;;15.69;73.80;102076.06;5092168;28;20117;-81
2022/06/13 06:32:17;;;;;;;4.68;2.78;;;;;;;15.87;72.41;102085.38;5093608;28;20028;-81
2022/06/13 06:34:42;;;;;;;4.97;2.50;;;;;;;16.09;72.85;102085.88;5093419;28;20107;-80
2022/06/13 06:37:07;;;;;;;5.03;2.50;;;;;;;16.41;71.30;102088.72;5093118;28;20415;-81
2022/06/13 06:39:33;;;;;;;5.77;2.50;;;;;;;16.55;69.34;102084.09;5085623;28;20028;-81
2022/06/13 06:42:00;;;;;;;10.87;3.70;;;;;;;16.35;65.29;102085.34;5072972;28;20030;-86
2022/06/13 06:44:25;;;;;;;9.27;3.10;;;;;;;16.16;66.65;102081.34;5076677;28;20125;-86
2022/06/13 06:46:50;;;;;;;6.57;2.63;;;;;;;16.05;66.12;102092.03;5072770;28;20500;-85
2022/06/13 06:49:15;;;;;;;8.53;2.90;;;;;;;16.13;66.23;102105.00;5073224;28;20031;-85
2022/06/13 06:51:42;;;;;;;7.20;2.67;;;;;;;16.35;64.65;102100.19;5071896;28;20033;-80
2022/06/13 06:59:55;;;;;;;8.02;2.42;;;;;;;17.21;61.03;102110.66;5071885;28;20089;-81
2022/06/13 07:02:23;;;;;;;5.55;2.22;;;;;;;17.31;59.07;102107.81;5073434;28;20021;-81
2022/06/13 07:04:54;;;;;;;5.07;2.35;;;;;;;17.33;60.80;102108.66;5072228;28;20032;-80
2022/06/13 07:07:19;;;;;;;7.72;2.45;;;;;;;17.00;56.42;102112.00;5072946;28;20024;-81
2022/06/13 07:09:45;;;;;;;7.45;2.20;;;;;;;17.01;59.44;102116.34;5073463;28;20357;-81
2022/06/13 07:12:11;;;;;;;4.87;2.20;;;;;;;17.11;56.21;102117.88;5072328;28;20112;-81
2022/06/13 07:14:36;;;;;;;6.97;2.05;;;;;;;17.03;57.75;102106.69;5072745;28;20024;-80
2022/06/13 07:17:05;;;;;;;6.33;2.33;;;;;;;16.92;56.05;102106.91;5072911;28;20621;-81
2022/06/13 07:19:30;;;;;;;4.32;1.92;;;;;;;17.02;58.97;102109.34;5072107;28;20085;-81
2022/06/13 07:21:56;;;;;;;2.63;1.90;;;;;;;17.31;60.33;102111.31;5073221;28;20500;-81
2022/06/13 07:24:23;;;;;;;7.18;2.30;;;;;;;17.48;56.66;102115.28;5072471;28;20021;-81
2022/06/13 07:26:58;;;;;;;5.35;2.30;;;;;;;17.53;57.91;102119.53;5071859;28;20408;-81
2022/06/13 07:29:24;;;;;;;10.68;2.65;;;;;;;17.65;56.01;102115.75;5072739;28;20036;-81
2022/06/13 07:31:56;;;;;;;3.60;2.37;;;;;;;17.90;56.72;102116.00;5072609;28;20428;-81
2022/06/13 07:34:29;;;;;;;8.18;2.72;;;;;;;17.86;55.53;102122.22;5072091;28;20024;-81
2022/06/13 07:36:56;;;;;;;7.68;2.60;;;;;;;17.55;55.70;102128.22;5072314;28;20162;-80
2022/06/13 07:39:22;;;;;;;4.22;2.45;;;;;;;17.34;57.98;102129.59;5072077;28;20032;-80
2022/06/13 07:41:48;;;;;;;2.67;1.90;;;;;;;17.35;59.77;102119.97;5071281;28;20028;-80
2022/06/13 07:44:18;;;;;;;5.20;1.95;;;;;;;17.42;59.33;102124.16;5073641;28;20029;-81
2022/06/13 07:46:46;;;;;;;3.28;1.77;;;;;;;17.37;58.96;102119.03;5072306;28;20021;-81
2022/06/13 07:49:11;;;;;;;4.15;1.90;;;;;;;17.49;59.40;102125.75;5071310;28;20029;-81
2022/06/13 07:51:37;;;;;;;4.57;1.90;;;;;;;17.74;58.31;102126.03;5071770;28;20505;-82
2022/06/13 07:54:02;;;;;;;3.50;1.90;;;;;;;17.94;56.41;102135.16;5072415;28;20373;-81
2022/06/13 07:56:30;;;;;;;4.07;2.10;;;;;;;18.05;58.53;102138.41;5071746;28;20028;-81
2022/06/13 07:58:56;;;;;;;5.50;2.10;;;;;;;18.21;55.71;102138.00;5071810;28;20028;-81
2022/06/13 08:01:22;;;;;;;;;;;;;;;18.28;57.20;102143.94;5072380;28;20090;-81
2022/06/13 08:03:47;;;;;;;6.37;2.20;;;;;;;18.42;57.55;102148.81;5072082;28;20278;-81
2022/06/13 08:06:13;;;;;;;7.57;2.53;;;;;;;18.46;56.06;102148.69;5072374;28;20539;-81
2022/06/13 08:08:40;;;;;;;4.40;2.20;;;;;;;18.64;56.68;102160.47;5071536;28;20290;-81
2022/06/13 08:11:08;;;;;;;2.72;1.88;;;;;;;18.86;56.59;102151.97;5086900;28;20032;-81
2022/06/13 08:13:36;;;;;;;2.47;1.73;;;;;;;19.06;56.87;102158.41;5092330;28;20027;-81
2022/06/13 08:16:02;;;;;;;3.53;1.77;;;;;;;19.29;55.04;102155.94;5091949;28;20036;-81
2022/06/13 08:18:28;;;;;;;5.78;2.10;;;;;;;19.38;52.70;102157.44;5095590;28;20104;-81
2022/06/13 08:20:54;;;;;;;7.50;2.35;;;;;;;19.25;53.20;102162.19;5095874;28;20097;-81
2022/06/13 08:23:21;;;;;;;7.93;2.47;;;;;;;19.14;55.14;102162.53;5095358;28;20040;-81
2022/06/13 08:25:48;;;;;;;7.38;2.30;;;;;;;18.70;54.92;102167.31;5095461;28;20460;-81
2022/06/13 08:28:16;;;;;;;4.50;2.10;;;;;;;18.59;56.05;102167.59;5096037;28;20483;-81
2022/06/13 08:30:56;;;;;;;3.85;1.85;;;;;;;18.52;57.37;102163.44;5093020;28;20077;-81
2022/06/13 08:33:22;;;;;;;2.53;1.70;;;;;;;18.52;57.37;102171.31;5095102;28;20465;-81
2022/06/13 08:35:48;;;;;;;2.53;1.73;;;;;;;18.68;57.55;102175.25;5095631;28;20557;-81
2022/06/13 08:38:17;;;;;;;3.78;1.70;;;;;;;18.91;54.30;102172.84;5093410;28;20115;-83
2022/06/13 08:41:06;;;;;;;5.97;2.15;;;;;;;19.09;53.68;102176.75;5095541;28;20035;-82
2022/06/13 08:44:05;;;;;;;5.57;2.08;;;;;;;19.10;55.88;102181.09;5094811;28;20032;-81
2022/06/13 08:47:04;;;;;;;4.45;1.85;;;;;;;19.27;54.38;102188.50;5095871;28;20028;-81
2022/06/13 08:49:41;;;;;;;5.68;1.98;;;;;;;19.32;53.09;102185.72;5095609;28;20111;-82
2022/06/13 08:52:24;;;;;;;2.40;1.45;;;;;;;19.50;54.28;102179.88;5077537;28;20036;-82
2022/06/13 08:54:59;;;;;;;6.07;1.98;;;;;;;19.49;51.92;102164.13;5074350;28;20052;-81
2022/06/13 08:57:29;;;;;;;3.58;1.80;;;;;;;19.63;49.11;102183.00;5073994;28;20131;-82
2022/06/13 09:00:05;;;;;;;3.85;1.80;;;;;;;19.44;50.21;102180.91;5074344;28;20040;-82
2022/06/13 09:02:49;;;;;;;;;;;;;;;19.65;53.83;102189.03;5074862;28;20025;-82
2022/06/13 09:05:34;;;;;;;3.45;1.88;;;;;;;19.65;51.26;102186.41;5072984;28;20368;-81
2022/06/13 09:08:27;;;;;;;5.37;1.73;;;;;;;19.51;50.32;102193.91;5075047;28;20035;-82
2022/06/13 09:11:05;;;;;;;4.22;1.90;;;;;;;19.06;49.86;102196.13;5074831;28;20033;-82
2022/06/13 09:13:41;;;;;;;4.60;1.67;;;;;;;18.87;52.00;102195.75;5074465;28;20112;-81
2022/06/13 09:16:13;;;;;;;3.78;1.70;;;;;;;18.64;52.49;102204.28;5075066;28;20036;-81
2022/06/13 09:18:47;;;;;;;1.83;1.40;;;;;;;18.57;53.79;102213.25;5073974;28;20377;-80
2022/06/13 09:21:25;;;;;;;2.72;1.30;;;;;;;18.48;52.14;102209.09;5074928;28;20110;-82
2022/06/13 09:24:10;;;;;;;5.63;2.00;;;;;;;18.37;52.18;102219.91;5074819;28;20085;-80
2022/06/13 09:26:49;;;;;;;3.15;1.52;;;;;;;18.64;52.75;102220.94;5073807;28;20021;-82
2022/06/13 09:29:36;;;;;;;5.95;1.70;;;;;;;18.78;52.45;102217.06;5084336;28;20051;-81
2022/06/13 09:32:09;;;;;;;5.00;1.55;;;;;;;18.96;53.37;102211.31;5083202;28;20047;-82
2022/06/13 09:34:44;;;;;;;1.83;1.08;;;;;;;19.23;53.01;102219.31;5074027;28;20027;-81
2022/06/13 09:37:12;;;;;;;2.80;1.63;;;;;;;19.35;52.56;102222.47;5074870;28;20033;-82
2022/06/13 09:39:39;;;;;;;2.58;1.30;;;;;;;19.63;54.32;102221.63;5073680;28;20027;-81
2022/06/13 09:42:14;;;;;;;1.67;1.00;;;;;;;19.89;53.61;102224.31;5074412;28;20031;-82
2022/06/13 09:44:46;;;;;;;2.90;1.00;;;;;;;19.92;51.47;102227.75;5074242;28;20456;-82
2022/06/13 09:47:26;;;;;;;2.17;0.98;;;;;;;19.80;50.95;102229.84;5073537;28;20476;-81
2022/06/13 09:50:04;;;;;;;1.52;1.02;;;;;;;19.65;51.72;102232.97;5073879;28;20032;-82
2022/06/13 09:52:48;;;;;;;2.08;1.30;;;;;;;19.54;50.44;102230.66;5073924;28;20428;-81
2022/06/13 09:55:52;;;;;;;2.38;1.10;;;;;;;19.70;52.65;102223.16;5073392;28;20021;-81
2022/06/13 09:58:20;;;;;;;0.77;0.70;;;;;;;20.11;53.18;102223.59;5074372;28;20500;-82
2022/06/13 10:01:06;;;;;;;1.85;1.00;;;;;;;20.33;48.00;102228.13;5073603;28;20106;-82
2022/06/13 10:03:57;;;;;;;2.97;1.40;;;;;;;19.83;46.54;102227.09;5122185;22;20440;-81
2022/06/13 10:06:27;;;;;;;3.92;1.42;;;;;;;19.37;48.70;102225.91;5053374;28;20040;-81
2022/06/13 10:08:59;;;;;;;2.88;1.30;;;;;;;19.45;51.05;102239.72;5052678;28;20032;-82
2022/06/13 10:12:06;;;;;;;3.58;1.20;;;;;;;19.82;50.38;102232.44;5052856;28;20416;-82
2022/06/13 10:15:17;;;;;;;5.20;1.45;;;;;;;20.22;49.68;102241.66;5053535;28;20423;-82
2022/06/13 10:18:11;;;;;;;2.45;1.02;;;;;;;20.51;50.97;102237.19;5053065;28;20040;-81
2022/06/13 10:20:53;;;;;;;2.55;1.15;;;;;;;20.58;49.87;102236.03;5051136;28;20393;-81
2022/06/13 10:23:26;;;;;;;1.15;0.95;;;;;;;20.51;49.67;102237.19;5045976;28;20029;-81
2022/06/13 10:26:16;;;;;;;1.85;0.80;;;;;;;20.55;48.08;102244.06;5052279;28;20909;-82
2022/06/13 10:29:06;;;;;;;1.48;0.73;;;;;;;20.46;49.50;102242.63;5052652;28;20029;-82
2022/06/13 10:31:34;;;;;;;2.88;0.95;;;;;;;20.14;48.33;102241.94;5053204;28;20041;-81
2022/06/13 10:34:21;;;;;;;2.22;1.20;;;;;;;19.77;48.74;102248.38;5053299;28;20025;-81
2022/06/13 10:37:23;;;;;;;1.38;1.00;;;;;;;19.56;49.84;102248.16;5052838;28;20033;-81
2022/06/13 10:39:52;;;;;;;1.27;0.90;;;;;;;19.40;49.99;102247.75;5052282;28;20029;-81
2022/06/13 10:42:24;;;;;;;1.17;0.95;;;;;;;19.44;51.14;102248.53;5052976;28;20106;-81
2022/06/13 10:44:50;;;;;;;1.95;1.17;;;;;;;19.58;48.24;102250.72;5052356;28;20029;-81
2022/06/13 10:47:22;;;;;;;2.03;1.13;;;;;;;19.63;47.91;102253.22;5053287;28;20082;-81
2022/06/13 10:50:09;;;;;;;4.95;1.52;;;;;;;19.89;48.61;102249.78;5052981;28;20033;-82
2022/06/13 10:52:46;;;;;;;2.67;1.48;;;;;;;20.16;49.37;102244.53;5052887;28;20029;-81
2022/06/13 10:55:15;;;;;;;2.50;1.25;;;;;;;20.30;49.10;102252.84;5053534;28;20044;-81
2022/06/13 10:57:46;;;;;;;2.35;1.30;;;;;;;20.27;48.17;102255.56;5051833;28;20085;-81
2022/06/13 11:00:18;;;;;;;1.10;0.90;;;;;;;20.22;49.75;102246.94;5053179;28;20039;-81
2022/06/13 11:02:43;;;;;;;1.10;0.80;;;;;;;20.16;50.36;102250.66;5052832;28;20106;-81
2022/06/13 11:05:13;;;;;;;1.40;1.00;;;;;;;20.07;46.99;102253.59;5051335;28;20080;-80
2022/06/13 11:07:48;;;;;;;1.83;1.00;;;;;;;20.20;47.24;102247.00;5050764;28;20029;-81
2022/06/13 11:10:36;;;;;;;4.47;1.60;;;;;;;20.26;44.90;102253.00;5052367;28;20048;-82
2022/06/13 11:13:14;;;;;;;2.58;1.20;;;;;;;20.35;48.85;102258.78;5051877;28;20033;-81
2022/06/13 11:24:11;;;;;;;1.88;0.95;;;;;;;21.52;47.19;102252.84;5052736;28;20389;-81
2022/06/13 11:29:27;;;;;;;0.60;0.60;;;;;;;21.06;43.82;102250.16;5053184;28;20094;-80
2022/06/13 11:32:06;;;;;;;1.92;1.00;;;;;;;20.81;44.50;102251.09;5052354;28;20025;-81
2022/06/13 11:34:39;;;;;;;1.38;1.10;;;;;;;20.95;44.90;102247.94;5051849;28;20107;-81
2022/06/13 11:37:18;;;;;;;0.90;0.90;;;;;;;21.34;45.92;102253.53;5052737;28;20021;-81
2022/06/13 11:39:46;;;;;;;1.92;1.10;;;;;;;21.31;42.43;102264.25;5052425;28;20107;-81
2022/06/13 11:42:26;;;;;;;2.55;1.17;;;;;;;20.93;44.00;102254.19;5052358;28;20470;-81
2022/06/13 11:44:57;;;;;;;1.95;1.25;;;;;;;20.67;44.64;102259.44;5052107;28;20393;-81
2022/06/13 11:47:22;;;;;;;2.58;1.38;;;;;;;20.79;45.80;102252.03;5051320;28;20112;-80
2022/06/13 11:49:55;;;;;;;2.10;1.35;;;;;;;20.77;44.12;102246.84;5052850;28;20032;-81
2022/06/13 11:53:35;;;;;;;3.78;1.40;;;;;;;20.91;46.38;102253.38;5055549;28;20091;-81
2022/06/13 11:55:18;;;;;;;3.78;1.63;;;;;;;20.90;44.59;102256.94;5055760;28;20033;-80
2022/06/13 11:57:52;;;;;;;4.78;1.90;;;;;;;20.59;44.97;102250.09;5055788;28;20041;-80
2022/06/13 12:00:17;;;;;;;1.95;1.40;;;;;;;20.64;46.20;102256.06;5055507;28;20021;-80
2022/06/13 12:02:48;;;;;;;2.43;1.30;;;;;;;20.56;46.06;102256.31;5055677;28;20075;-81
2022/06/13 12:05:28;;;;;;;4.47;1.63;;;;;;;20.53;47.27;102261.72;5056299;28;20037;-81
2022/06/13 12:08:14;;;;;;;3.25;1.42;;;;;;;20.46;46.26;102262.84;5054842;28;20087;-82
2022/06/13 12:10:41;;;;;;;3.20;1.50;;;;;;;20.16;47.02;102262.97;5055954;28;20056;-81
2022/06/13 12:13:14;;;;;;;2.33;1.30;;;;;;;20.06;48.36;102270.31;5056242;28;20025;-81
2022/06/13 12:15:48;;;;;;;2.78;1.20;;;;;;;19.92;47.88;102275.19;5055079;28;20033;-82
2022/06/13 12:18:22;;;;;;;3.78;1.80;;;;;;;19.90;45.97;102264.69;5055849;28;20024;-82